Altea, Spain
Current Conditions -  °F | °C
As of 10:00 AM on Wednesday 26 Nov 2014 (Local Time) from LEAL Reporting Station
Scattered Clouds Scattered Clouds  
Wind Chill: 61°   Ceiling: Unl
Heat Index: 61°   Visibility: 6mi
Dew Point: 57°   Wind: 6mph
Humidity: 88%   Direction: 240°WSW
Pressure: 29.94"   Gusts: NA
Location:  38.6°N, 0.05°W
Report Text: LEAL 260900Z 24005KT 220V280 9999 FEW025 SCT060 16/14 Q1014 NOSIG
Loading
Personal Weather Stations






























Interactive Weather Map New forecast layout! Learn more

10-Day Weather Forecast

Advertisements
Track Severe Weather on mobile